createdAt,value
2018-08-19T00:02:17.385Z,99502.95
2018-08-19T00:05:01.900Z,99495.55
2018-08-19T00:07:30.963Z,99496.28
2018-08-19T00:10:00.077Z,99498.15
2018-08-19T00:12:39.229Z,99500.03
2018-08-19T00:15:08.340Z,99493.79
2018-08-19T00:17:37.427Z,99492.70
2018-08-19T00:20:08.649Z,99495.76
2018-08-19T00:22:38.039Z,99487.62
2018-08-19T00:25:07.188Z,99488.63
2018-08-19T00:27:37.714Z,99482.01
2018-08-19T00:30:08.909Z,99487.08
2018-08-19T00:32:37.997Z,99483.55
2018-08-19T00:35:07.039Z,99481.72
2018-08-19T00:37:36.181Z,99455.38
2018-08-19T00:40:09.964Z,99479.30
2018-08-19T00:42:39.142Z,99481.80
2018-08-19T00:45:08.195Z,99416.36
2018-08-19T00:47:37.246Z,99477.89
2018-08-19T00:50:06.454Z,99487.16
2018-08-19T00:52:36.468Z,99487.60
2018-08-19T00:55:05.767Z,99486.50
2018-08-19T00:57:35.316Z,99480.66
2018-08-19T01:00:04.784Z,99484.30
2018-08-19T01:02:34.219Z,99483.33
2018-08-19T01:05:03.354Z,99485.23
2018-08-19T01:07:33.932Z,99490.77
2018-08-19T01:10:03.055Z,99485.37
2018-08-19T01:12:32.203Z,99484.92
2018-08-19T01:15:01.293Z,99489.78
2018-08-19T01:17:38.553Z,99492.88
2018-08-19T01:20:08.621Z,99495.72
2018-08-19T01:22:39.781Z,99494.42
2018-08-19T01:25:10.109Z,99495.63
2018-08-19T01:27:40.088Z,99495.77
2018-08-19T01:30:18.723Z,99499.64
2018-08-19T01:32:47.885Z,99498.39
2018-08-19T01:35:17.298Z,99497.44
2018-08-19T01:37:46.397Z,99500.95
2018-08-19T01:40:18.003Z,99502.78
2018-08-19T01:42:47.781Z,99502.45
2018-08-19T01:45:16.860Z,99495.02
2018-08-19T01:47:45.939Z,99487.05
2018-08-19T01:50:18.525Z,99501.89
2018-08-19T01:52:50.228Z,99508.76
2018-08-19T01:55:19.716Z,99505.69
2018-08-19T01:57:50.105Z,99505.73
2018-08-19T02:00:19.597Z,99506.70
2018-08-19T02:02:59.773Z,99504.47
2018-08-19T02:05:28.922Z,99506.00
2018-08-19T02:07:59.581Z,99505.73
2018-08-19T02:10:29.396Z,99503.11
2018-08-19T02:12:59.026Z,99499.02
2018-08-19T02:15:29.249Z,99500.86
2018-08-19T02:17:59.438Z,99506.84
2018-08-19T02:20:39.121Z,99500.53
2018-08-19T02:23:09.642Z,99503.52
2018-08-19T02:25:41.732Z,99501.31
2018-08-19T02:28:11.301Z,99505.73
2018-08-19T02:30:51.430Z,99498.17
2018-08-19T02:33:21.655Z,99497.95
2018-08-19T02:36:07.790Z,99498.55
2018-08-19T02:38:38.041Z,99497.34
2018-08-19T02:41:07.276Z,99494.34
2018-08-19T02:43:46.172Z,99496.98
2018-08-19T02:46:15.224Z,99494.61
2018-08-19T02:48:48.332Z,99497.38
2018-08-19T02:51:19.750Z,99498.05
2018-08-19T02:53:50.070Z,99505.02
2018-08-19T02:56:19.819Z,99496.78
2018-08-19T02:58:49.409Z,99504.31
2018-08-19T03:01:18.842Z,99502.85
2018-08-19T03:03:47.907Z,99505.73
2018-08-19T03:06:17.034Z,99505.44
2018-08-19T03:08:56.426Z,99506.56
2018-08-19T03:11:25.529Z,99500.28
2018-08-19T03:13:55.095Z,99514.06
2018-08-19T03:16:24.192Z,99507.69
2018-08-19T03:18:53.719Z,99504.11
2018-08-19T03:21:23.219Z,99504.64
2018-08-19T03:23:53.545Z,99500.64
2018-08-19T03:26:22.656Z,99359.88
2018-08-19T03:28:51.765Z,99500.52
2018-08-19T03:31:20.869Z,99499.18
2018-08-19T03:33:49.987Z,99504.91
2018-08-19T03:36:19.041Z,99501.47
2018-08-19T03:38:48.187Z,99504.41
2018-08-19T03:41:17.249Z,99503.04
2018-08-19T03:43:53.489Z,99500.75
2018-08-19T03:46:22.673Z,99498.67
2018-08-19T03:48:52.454Z,99498.67
2018-08-19T03:51:21.559Z,99494.06
2018-08-19T03:53:50.746Z,99494.77
2018-08-19T03:56:25.218Z,99497.81
2018-08-19T03:58:59.429Z,99495.41
2018-08-19T04:01:39.997Z,99498.70
2018-08-19T04:04:09.367Z,99502.12
2018-08-19T04:06:39.628Z,99504.08
2018-08-19T04:09:08.789Z,99499.06
2018-08-19T04:11:37.919Z,99506.17
2018-08-19T04:14:28.268Z,99510.52
2018-08-19T04:17:00.074Z,99503.91
2018-08-19T04:19:29.979Z,99505.19
2018-08-19T04:22:01.116Z,99504.55
2018-08-19T04:24:30.701Z,99505.37
2018-08-19T04:27:04.740Z,99501.48
2018-08-19T04:29:34.517Z,99499.45
2018-08-19T04:32:04.426Z,99492.78
2018-08-19T04:34:33.543Z,99507.26
2018-08-19T04:37:02.644Z,99496.81
2018-08-19T04:39:31.722Z,99507.39
2018-08-19T04:42:00.835Z,99506.22
2018-08-19T04:44:29.944Z,99500.13
2018-08-19T04:47:00.023Z,99510.05
2018-08-19T04:49:29.109Z,99511.81
2018-08-19T04:51:58.210Z,99509.42
2018-08-19T04:54:27.314Z,99513.00
2018-08-19T04:56:56.402Z,99511.58
2018-08-19T04:59:25.621Z,99519.64
2018-08-19T05:01:55.362Z,99513.92
2018-08-19T05:04:24.385Z,99518.27
2018-08-19T05:06:53.482Z,99516.63
2018-08-19T05:09:22.579Z,99521.89
2018-08-19T05:11:51.676Z,99520.13
2018-08-19T05:14:20.817Z,99516.08
2018-08-19T05:16:49.911Z,99523.59
2018-08-19T05:19:18.974Z,99519.30
2018-08-19T05:21:48.041Z,99509.61
2018-08-19T05:24:17.133Z,99515.23
2018-08-19T05:26:47.619Z,99512.64
2018-08-19T05:29:17.035Z,99518.07
2018-08-19T05:31:50.020Z,99511.67
2018-08-19T05:34:24.462Z,99513.97
2018-08-19T05:36:53.532Z,99506.44
2018-08-19T05:39:22.629Z,99509.91
2018-08-19T05:42:05.379Z,99516.66
2018-08-19T05:44:35.783Z,99492.27
2018-08-19T05:47:06.218Z,99520.80
2018-08-19T05:49:37.122Z,99519.91
2018-08-19T05:52:21.754Z,99523.51
2018-08-19T05:54:56.272Z,99519.55
2018-08-19T05:57:25.373Z,99522.97
2018-08-19T05:59:55.026Z,99512.00
2018-08-19T06:02:30.187Z,99523.50
2018-08-19T06:05:00.245Z,99522.01
2018-08-19T06:07:29.484Z,99528.59
2018-08-19T06:09:58.835Z,99526.02
2018-08-19T06:12:27.919Z,99521.85
2018-08-19T06:14:58.688Z,99524.31
2018-08-19T06:17:27.791Z,99524.94
2018-08-19T06:19:56.858Z,99522.34
2018-08-19T06:22:42.452Z,99512.04
2018-08-19T06:25:12.426Z,99518.30
2018-08-19T06:27:45.579Z,99522.08
2018-08-19T06:30:15.740Z,99523.64
2018-08-19T06:32:44.805Z,99520.36
2018-08-19T06:35:14.166Z,99529.52
2018-08-19T06:37:43.344Z,99526.30
2018-08-19T06:40:15.330Z,99527.07
2018-08-19T06:42:44.537Z,99524.67
2018-08-19T06:45:17.053Z,99511.55
2018-08-19T06:47:46.230Z,99519.03
2018-08-19T06:50:22.821Z,99523.06
2018-08-19T06:52:52.180Z,99522.56
2018-08-19T06:55:21.325Z,99525.36
2018-08-19T06:57:50.491Z,99521.45
2018-08-19T07:00:27.129Z,99521.58
2018-08-19T07:02:58.279Z,99526.44
2018-08-19T07:05:27.370Z,99528.17
2018-08-19T07:07:56.470Z,99523.16
2018-08-19T07:10:31.803Z,99518.16
2018-08-19T07:13:11.224Z,99526.14
2018-08-19T07:15:41.878Z,99530.52
2018-08-19T07:18:13.825Z,99532.55
2018-08-19T07:20:43.588Z,99528.36
2018-08-19T07:23:13.103Z,99527.99
2018-08-19T07:25:43.323Z,99530.84
2018-08-19T07:28:13.664Z,99531.91
2018-08-19T07:30:43.112Z,99536.49
2018-08-19T07:33:12.860Z,99538.64
2018-08-19T07:35:41.949Z,99539.10
2018-08-19T07:38:11.193Z,99542.34
2018-08-19T07:40:40.282Z,99542.58
2018-08-19T07:43:09.597Z,99543.23
2018-08-19T07:45:38.675Z,99543.06
2018-08-19T07:48:07.803Z,99540.23
2018-08-19T07:50:36.850Z,99528.80
2018-08-19T07:53:05.987Z,99523.84
2018-08-19T07:55:35.097Z,99531.21
2018-08-19T07:58:04.153Z,99535.71
2018-08-19T08:00:40.018Z,99533.42
2018-08-19T08:03:09.332Z,99527.50
2018-08-19T08:05:43.738Z,99528.91
2018-08-19T08:08:12.812Z,99528.18
2018-08-19T08:10:41.955Z,99527.99
2018-08-19T08:13:12.532Z,99525.06
2018-08-19T08:15:47.065Z,99523.77
2018-08-19T08:18:16.210Z,99521.56
2018-08-19T08:20:45.304Z,99521.06
2018-08-19T08:23:20.136Z,99529.72
2018-08-19T08:25:49.561Z,99527.41
2018-08-19T08:28:19.249Z,99530.61
2018-08-19T08:30:48.402Z,99531.22
2018-08-19T08:33:17.521Z,99536.81
2018-08-19T08:35:52.081Z,99526.97
2018-08-19T08:38:21.200Z,99533.33
2018-08-19T08:40:50.577Z,99527.38
2018-08-19T08:43:21.293Z,99527.49
2018-08-19T08:45:50.407Z,99527.49
2018-08-19T08:48:19.507Z,99529.47
2018-08-19T08:50:48.642Z,99522.47
2018-08-19T08:53:17.810Z,99525.98
2018-08-19T08:55:48.369Z,99526.59
2018-08-19T08:58:17.519Z,99528.89
2018-08-19T09:00:46.842Z,99523.97
2018-08-19T09:03:16.046Z,99520.03
2018-08-19T09:05:44.991Z,99516.58
2018-08-19T09:08:14.101Z,99516.80
2018-08-19T09:10:43.214Z,99514.45
2018-08-19T09:13:12.361Z,99514.84
2018-08-19T09:15:41.438Z,99512.14
2018-08-19T09:18:10.588Z,99508.13
2018-08-19T09:20:39.709Z,99509.26
2018-08-19T09:23:09.000Z,99506.55
2018-08-19T09:25:37.992Z,99502.72
2018-08-19T09:28:07.102Z,99502.52
2018-08-19T09:30:38.261Z,99498.44
2018-08-19T09:33:07.397Z,99495.95
2018-08-19T09:35:37.711Z,99489.89
2018-08-19T09:38:13.479Z,99485.84
2018-08-19T09:40:43.321Z,99485.84
2018-08-19T09:43:12.418Z,99479.48
2018-08-19T09:45:41.921Z,99467.58
2018-08-19T09:48:11.699Z,99469.36
2018-08-19T09:50:41.964Z,99468.02
2018-08-19T09:53:11.154Z,99461.18
2018-08-19T09:55:51.264Z,99467.20
2018-08-19T09:58:21.712Z,99455.19
2018-08-19T10:00:57.162Z,99454.73
2018-08-19T10:03:26.255Z,99450.23
2018-08-19T10:05:55.386Z,99460.14
2018-08-19T10:08:24.826Z,99454.11
2018-08-19T10:10:53.936Z,99454.42
2018-08-19T10:13:23.039Z,99463.03
2018-08-19T10:15:52.508Z,99460.98
2018-08-19T10:18:21.922Z,99456.73
2018-08-19T10:20:51.417Z,99451.58
2018-08-19T10:23:24.226Z,99446.69
2018-08-19T10:25:53.756Z,99447.45
2018-08-19T10:28:22.826Z,99448.94
2018-08-19T10:30:58.808Z,99443.28
2018-08-19T10:33:27.982Z,99441.88
2018-08-19T10:35:58.334Z,99440.74
2018-08-19T10:38:27.601Z,99437.47
2018-08-19T10:41:03.740Z,99441.80
2018-08-19T10:43:33.207Z,99439.11
2018-08-19T10:46:02.580Z,99437.66
2018-08-19T10:48:31.695Z,99431.67
2018-08-19T10:51:02.626Z,99428.87
2018-08-19T10:53:31.743Z,99428.73
2018-08-19T10:56:02.050Z,99428.16
2018-08-19T10:58:31.128Z,99416.45
2018-08-19T11:01:00.262Z,99422.91
2018-08-19T11:03:30.708Z,99417.29
2018-08-19T11:05:59.913Z,99419.94
2018-08-19T11:08:29.447Z,99427.76
2018-08-19T11:10:59.771Z,99412.21
2018-08-19T11:13:29.997Z,99408.45
2018-08-19T11:15:59.465Z,99405.36
2018-08-19T11:18:39.419Z,99401.78
2018-08-19T11:21:10.632Z,99396.69
2018-08-19T11:23:41.208Z,99402.34
2018-08-19T11:26:10.820Z,99399.82
2018-08-19T11:28:51.181Z,99395.84
2018-08-19T11:31:26.169Z,99390.95
2018-08-19T11:33:56.446Z,99389.25
2018-08-19T11:36:34.620Z,99393.46
2018-08-19T11:39:05.702Z,99388.09
2018-08-19T11:41:35.109Z,99383.00
2018-08-19T11:44:06.263Z,99378.77
2018-08-19T11:46:35.848Z,99382.22
2018-08-19T11:49:09.114Z,99382.88
2018-08-19T11:51:46.251Z,99381.58
2018-08-19T11:54:16.630Z,99378.94
2018-08-19T11:57:05.836Z,99381.63
2018-08-19T11:59:39.074Z,99378.80
2018-08-19T12:02:22.551Z,99371.30
2018-08-19T12:04:51.645Z,99366.94
2018-08-19T12:07:20.916Z,99368.39
2018-08-19T12:09:55.974Z,99363.98
2018-08-19T12:12:41.582Z,99367.09
2018-08-19T12:15:10.701Z,99364.23
2018-08-19T12:17:39.790Z,99364.31
2018-08-19T12:20:08.873Z,99359.52
2018-08-19T12:22:39.578Z,99364.75
2018-08-19T12:25:08.797Z,99353.02
2018-08-19T12:27:38.179Z,99348.23
2018-08-19T12:30:11.903Z,99350.55
2018-08-19T12:32:41.000Z,99345.80
2018-08-19T12:35:10.092Z,99331.61
2018-08-19T12:37:39.326Z,99340.70
2018-08-19T12:40:08.666Z,99338.84
2018-08-19T12:42:43.014Z,99334.30
2018-08-19T12:45:12.341Z,99338.64
2018-08-19T12:47:41.724Z,99335.34
2018-08-19T12:50:14.426Z,99331.67
2018-08-19T12:52:43.715Z,99326.94
2018-08-19T12:55:14.871Z,99323.05
2018-08-19T12:57:44.597Z,99322.33
2018-08-19T13:00:31.863Z,99308.30
2018-08-19T13:03:01.452Z,99308.13
2018-08-19T13:05:30.572Z,99305.05
2018-08-19T13:07:59.660Z,99306.03
2018-08-19T13:10:35.394Z,99304.45
2018-08-19T13:13:05.779Z,99306.64
2018-08-19T13:15:34.830Z,99300.77
2018-08-19T13:18:03.957Z,99304.45
2018-08-19T13:20:33.002Z,99299.80
2018-08-19T13:23:03.479Z,99297.78
2018-08-19T13:25:33.033Z,99290.98
2018-08-19T13:28:02.145Z,99292.16
2018-08-19T13:30:31.317Z,99283.16
2018-08-19T13:33:00.410Z,99281.16
2018-08-19T13:35:29.947Z,99281.23
2018-08-19T13:37:58.992Z,99284.91
2018-08-19T13:40:28.108Z,99273.99
2018-08-19T13:42:57.201Z,99276.75
2018-08-19T13:45:26.681Z,99268.30
2018-08-19T13:47:55.705Z,99277.02
2018-08-19T13:50:24.817Z,99271.75
2018-08-19T13:52:53.898Z,99262.94
2018-08-19T13:55:23.042Z,99259.81
2018-08-19T13:57:52.139Z,99261.56
2018-08-19T14:00:22.818Z,99258.45
2018-08-19T14:02:52.233Z,99255.69
2018-08-19T14:05:21.366Z,99245.11
2018-08-19T14:07:50.502Z,99246.81
2018-08-19T14:10:19.593Z,99252.66
2018-08-19T14:12:48.698Z,99255.06
2018-08-19T14:15:17.798Z,99240.28
2018-08-19T14:17:47.341Z,99242.33
2018-08-19T14:20:16.465Z,99239.92
2018-08-19T14:22:45.521Z,99242.46
2018-08-19T14:25:14.631Z,99236.45
2018-08-19T14:27:43.694Z,99234.61
2018-08-19T14:30:13.142Z,99232.16
2018-08-19T14:32:43.712Z,99234.84
2018-08-19T14:35:12.809Z,99206.83
2018-08-19T14:37:42.147Z,99222.94
2018-08-19T14:40:16.024Z,99225.16
2018-08-19T14:42:45.300Z,99227.50
2018-08-19T14:45:14.426Z,99215.45
2018-08-19T14:47:43.531Z,99227.17
2018-08-19T14:50:18.171Z,99218.27
2018-08-19T14:52:48.418Z,99220.16
2018-08-19T14:55:17.527Z,99213.80
2018-08-19T14:57:46.632Z,99209.47
2018-08-19T15:00:16.746Z,99209.86
2018-08-19T15:02:45.841Z,99212.00
2018-08-19T15:05:19.548Z,99208.33
2018-08-19T15:07:48.993Z,99212.36
2018-08-19T15:10:20.756Z,99206.88
2018-08-19T15:12:49.985Z,99190.87
2018-08-19T15:15:19.048Z,99212.89
2018-08-19T15:17:56.705Z,99207.97
2018-08-19T15:20:29.951Z,99196.79
2018-08-19T15:23:09.041Z,99196.34
2018-08-19T15:25:38.268Z,99197.81
2018-08-19T15:28:07.467Z,99201.80
2018-08-19T15:30:39.279Z,99201.15
2018-08-19T15:33:09.146Z,99199.61
2018-08-19T15:35:38.150Z,99196.08
2018-08-19T15:38:07.287Z,99195.42
2018-08-19T15:40:41.364Z,99196.46
2018-08-19T15:43:11.610Z,99194.28
2018-08-19T15:45:41.054Z,99199.72
2018-08-19T15:48:10.223Z,99191.48
2018-08-19T15:50:39.305Z,99185.16
2018-08-19T15:53:09.628Z,99195.23
2018-08-19T15:55:39.393Z,99184.58
2018-08-19T15:58:08.650Z,99184.39
2018-08-19T16:00:40.005Z,99192.23
2018-08-19T16:03:10.495Z,99193.23
2018-08-19T16:05:39.571Z,99183.36
2018-08-19T16:08:08.763Z,99180.03
2018-08-19T16:10:37.930Z,99174.39
2018-08-19T16:13:09.003Z,99177.53
2018-08-19T16:15:38.177Z,99179.70
2018-08-19T16:18:07.821Z,99183.61
2018-08-19T16:20:37.174Z,99179.80
2018-08-19T16:23:06.469Z,99177.32
2018-08-19T16:25:35.654Z,99181.31
2018-08-19T16:28:05.187Z,99166.40
2018-08-19T16:30:34.685Z,99162.72
2018-08-19T16:33:04.042Z,99158.95
2018-08-19T16:35:33.248Z,99157.78
2018-08-19T16:38:02.372Z,99161.03
2018-08-19T16:40:32.551Z,99155.78
2018-08-19T16:43:01.727Z,99149.61
2018-08-19T16:45:30.997Z,99146.59
2018-08-19T16:48:00.062Z,99150.70
2018-08-19T16:50:29.346Z,99152.11
2018-08-19T16:52:58.966Z,99153.33
2018-08-19T16:55:28.033Z,99145.73
2018-08-19T16:57:57.245Z,99145.95
2018-08-19T17:00:26.282Z,99141.94
2018-08-19T17:02:55.640Z,99145.58
2018-08-19T17:05:30.630Z,99139.43
2018-08-19T17:07:59.738Z,99138.61
2018-08-19T17:10:35.430Z,99153.50
2018-08-19T17:13:04.802Z,99142.34
2018-08-19T17:15:33.868Z,99138.09
2018-08-19T17:18:02.970Z,99142.75
2018-08-19T17:20:32.066Z,99133.34
2018-08-19T17:23:01.192Z,99138.52
2018-08-19T17:25:30.269Z,99143.52
2018-08-19T17:28:05.135Z,99139.67
2018-08-19T17:30:34.252Z,99144.62
2018-08-19T17:33:08.638Z,99147.39
2018-08-19T17:35:38.341Z,99148.44
2018-08-19T17:38:07.825Z,99144.33
2018-08-19T17:40:37.790Z,99152.30
2018-08-19T17:43:07.185Z,99143.77
2018-08-19T17:45:37.456Z,99145.11
2018-08-19T17:48:06.567Z,99149.20
2018-08-19T17:50:37.921Z,99146.47
2018-08-19T17:53:07.730Z,99145.69
2018-08-19T17:55:36.804Z,99142.73
2018-08-19T17:58:06.012Z,99154.82
2018-08-19T18:00:35.320Z,99144.51
2018-08-19T18:03:04.454Z,99147.23
2018-08-19T18:05:34.171Z,99153.44
2018-08-19T18:08:04.374Z,99151.09
2018-08-19T18:10:33.473Z,99148.37
2018-08-19T18:13:02.529Z,99153.61
2018-08-19T18:15:31.627Z,99149.49
2018-08-19T18:18:05.596Z,99148.52
2018-08-19T18:20:36.196Z,99154.28
2018-08-19T18:28:11.469Z,99151.84
2018-08-19T18:30:40.692Z,99153.75
2018-08-19T18:33:09.778Z,99147.08
2018-08-19T18:35:38.889Z,99153.48
2018-08-19T18:38:18.136Z,99160.58
2018-08-19T18:40:47.245Z,99156.27
2018-08-19T18:43:16.464Z,99158.54
2018-08-19T18:45:45.717Z,99160.88
2018-08-19T18:48:17.898Z,99158.29
2018-08-19T18:50:47.223Z,99162.77
2018-08-19T18:53:16.405Z,99165.49
2018-08-19T18:55:45.842Z,99164.22
2018-08-19T18:58:15.044Z,99167.23
2018-08-19T19:00:49.946Z,99168.88
2018-08-19T19:03:19.142Z,99165.98
2018-08-19T19:05:48.288Z,99170.84
2018-08-19T19:08:18.502Z,99171.98
2018-08-19T19:10:55.572Z,99172.50
2018-08-19T19:13:26.341Z,99168.20
2018-08-19T19:15:55.588Z,99168.05
2018-08-19T19:18:25.967Z,99173.84
2018-08-19T19:21:02.216Z,99182.78
2018-08-19T19:23:37.730Z,99175.74
2018-08-19T19:26:07.429Z,99173.89
2018-08-19T19:28:36.696Z,99180.03
2018-08-19T19:31:11.359Z,99176.84
2018-08-19T19:33:40.546Z,99181.42
2018-08-19T19:36:14.929Z,99184.27
2018-08-19T19:38:49.459Z,99190.63
2018-08-19T19:41:22.603Z,99198.89
2018-08-19T19:43:51.753Z,99197.05
2018-08-19T19:46:21.378Z,99195.34
2018-08-19T19:48:50.644Z,99199.63
2018-08-19T19:51:19.768Z,99199.77
2018-08-19T19:53:48.902Z,99202.34
2018-08-19T19:56:19.263Z,99202.21
2018-08-19T19:58:49.615Z,99200.46
2018-08-19T20:01:18.868Z,99205.61
2018-08-19T20:03:52.645Z,99204.16
2018-08-19T20:06:22.260Z,99212.59
2018-08-19T20:08:51.540Z,99204.61
2018-08-19T20:11:26.199Z,99207.92
2018-08-19T20:13:59.635Z,99209.73
2018-08-19T20:16:28.705Z,99207.68
2018-08-19T20:18:57.844Z,99211.94
2018-08-19T20:21:28.215Z,99210.47
2018-08-19T20:23:58.478Z,99210.81
2018-08-19T20:26:28.185Z,99211.91
2018-08-19T20:28:58.976Z,99212.59
2018-08-19T20:31:28.173Z,99215.94
2018-08-19T20:33:57.370Z,99211.64
2018-08-19T20:36:27.211Z,99214.96
2018-08-19T20:38:56.357Z,99213.05
2018-08-19T20:41:25.737Z,99219.02
2018-08-19T20:43:54.930Z,99217.01
2018-08-19T20:46:24.105Z,99220.08
2018-08-19T20:48:53.209Z,99227.13
2018-08-19T20:51:22.372Z,99217.08
2018-08-19T20:53:51.558Z,99227.09
2018-08-19T20:56:20.716Z,99231.64
2018-08-19T20:58:49.787Z,99231.15
2018-08-19T21:01:24.390Z,99227.25
2018-08-19T21:03:57.545Z,99232.78
2018-08-19T21:06:26.958Z,99229.36
2018-08-19T21:08:56.167Z,99229.28
2018-08-19T21:11:25.311Z,99234.02
2018-08-19T21:13:54.385Z,99235.47
2018-08-19T21:16:23.793Z,99232.41
2018-08-19T21:18:53.121Z,99237.20
2018-08-19T21:21:22.872Z,99231.94
2018-08-19T21:23:51.986Z,99237.02
2018-08-19T21:26:21.233Z,99234.33
2018-08-19T21:28:56.516Z,99238.44
2018-08-19T21:31:25.591Z,99240.02
2018-08-19T21:33:54.672Z,99240.13
2018-08-19T21:36:23.804Z,99246.02
2018-08-19T21:38:52.876Z,99247.83
2018-08-19T21:41:21.931Z,99248.50
2018-08-19T21:43:50.994Z,99247.05
2018-08-19T21:46:20.294Z,99250.44
2018-08-19T21:48:49.999Z,99255.61
2018-08-19T21:51:19.025Z,99252.59
2018-08-19T21:53:48.496Z,99248.08
2018-08-19T21:56:17.590Z,99255.97
2018-08-19T21:58:46.688Z,99253.26
2018-08-19T22:01:21.000Z,99256.83
2018-08-19T22:03:50.542Z,99259.52
2018-08-19T22:06:19.586Z,99255.06
2018-08-19T22:08:48.762Z,99253.36
2018-08-19T22:11:17.810Z,99256.19
2018-08-19T22:13:46.992Z,99261.11
2018-08-19T22:16:16.215Z,99259.66
2018-08-19T22:18:45.354Z,99253.47
2018-08-19T22:21:16.669Z,99256.03
2018-08-19T22:23:47.785Z,99249.45
2018-08-19T22:26:18.061Z,99254.00
2018-08-19T22:29:01.354Z,99254.53
2018-08-19T22:31:30.824Z,99256.14
2018-08-19T22:33:59.948Z,99247.52
2018-08-19T22:36:29.315Z,99253.79
2018-08-19T22:38:58.401Z,99253.09
2018-08-19T22:41:29.083Z,99258.02
2018-08-19T22:43:58.575Z,99258.55
2018-08-19T22:46:28.322Z,99256.89
2018-08-19T22:48:57.926Z,99258.11
2018-08-19T22:51:30.426Z,99252.18
2018-08-19T22:53:59.485Z,99253.30
2018-08-19T22:56:28.665Z,99255.42
2018-08-19T22:58:57.781Z,99255.56
2018-08-19T23:01:31.088Z,99262.64
2018-08-19T23:04:01.532Z,99257.90
2018-08-19T23:06:31.365Z,99252.58
2018-08-19T23:09:00.777Z,99257.16
2018-08-19T23:11:35.773Z,99253.50
2018-08-19T23:14:17.410Z,99255.33
2018-08-19T23:16:46.577Z,99261.55
2018-08-19T23:19:17.085Z,99258.59
2018-08-19T23:21:46.131Z,99250.83
2018-08-19T23:24:15.174Z,99251.08
2018-08-19T23:26:44.285Z,99246.58
2018-08-19T23:29:13.357Z,99253.02
2018-08-19T23:31:42.429Z,99252.00
2018-08-19T23:34:11.761Z,99252.26
2018-08-19T23:36:40.898Z,99263.42
2018-08-19T23:39:10.570Z,99253.34
2018-08-19T23:41:39.684Z,99255.90
2018-08-19T23:44:09.161Z,99253.52
2018-08-19T23:46:38.291Z,99257.23
2018-08-19T23:49:07.348Z,99253.39
2018-08-19T23:51:36.698Z,99261.77
2018-08-19T23:54:05.807Z,99263.97
2018-08-19T23:56:34.954Z,99264.58
2018-08-19T23:59:04.163Z,99265.62
